sensor_id;sensor_type;location;lat;lon;timestamp;pressure;altitude;pressure_sealevel;temperature;humidity
32873;BME280;19224;52.462;16.898;2023-02-28T00:00:38;101831.53;;;0.12;100.00
32873;BME280;19224;52.462;16.898;2023-02-28T00:03:11;101836.27;;;0.07;100.00
32873;BME280;19224;52.462;16.898;2023-02-28T00:05:42;101831.78;;;0.04;100.00
32873;BME280;19224;52.462;16.898;2023-02-28T00:08:12;101831.78;;;0.04;100.00
32873;BME280;19224;52.462;16.898;2023-02-28T00:10:43;101834.47;;;0.06;100.00
32873;BME280;19224;52.462;16.898;2023-02-28T00:13:14;101840.19;;;0.05;100.00
32873;BME280;19224;52.462;16.898;2023-02-28T00:15:45;101841.60;;;0.08;100.00
32873;BME280;19224;52.462;16.898;2023-02-28T00:18:16;101839.42;;;0.11;100.00
32873;BME280;19224;52.462;16.898;2023-02-28T00:20:49;101835.95;;;0.13;100.00
32873;BME280;19224;52.462;16.898;2023-02-28T00:23:20;101832.95;;;0.17;100.00
32873;BME280;19224;52.462;16.898;2023-02-28T00:25:51;101833.30;;;0.12;100.00
32873;BME280;19224;52.462;16.898;2023-02-28T00:28:22;101837.01;;;0.00;100.00
32873;BME280;19224;52.462;16.898;2023-02-28T00:30:53;101848.77;;;-0.06;100.00
32873;BME280;19224;52.462;16.898;2023-02-28T00:33:24;101842.29;;;-0.18;100.00
32873;BME280;19224;52.462;16.898;2023-02-28T00:36:07;101843.31;;;-0.13;100.00
32873;BME280;19224;52.462;16.898;2023-02-28T00:38:39;101849.88;;;-0.16;100.00
32873;BME280;19224;52.462;16.898;2023-02-28T00:41:11;101840.50;;;-0.21;100.00
32873;BME280;19224;52.462;16.898;2023-02-28T00:43:42;101843.20;;;-0.18;100.00
32873;BME280;19224;52.462;16.898;2023-02-28T00:46:15;101835.47;;;-0.09;100.00
32873;BME280;19224;52.462;16.898;2023-02-28T00:48:45;101840.12;;;0.01;100.00
32873;BME280;19224;52.462;16.898;2023-02-28T00:51:18;101842.30;;;0.00;100.00
32873;BME280;19224;52.462;16.898;2023-02-28T00:53:48;101839.16;;;-0.01;100.00
32873;BME280;19224;52.462;16.898;2023-02-28T00:56:19;101836.34;;;-0.08;100.00
32873;BME280;19224;52.462;16.898;2023-02-28T00:58:50;101845.90;;;-0.16;100.00
32873;BME280;19224;52.462;16.898;2023-02-28T01:01:21;101841.38;;;-0.20;100.00
32873;BME280;19224;52.462;16.898;2023-02-28T01:03:52;101844.83;;;-0.23;100.00
32873;BME280;19224;52.462;16.898;2023-02-28T01:06:22;101840.80;;;-0.26;100.00
32873;BME280;19224;52.462;16.898;2023-02-28T01:08:53;101842.98;;;-0.27;100.00
32873;BME280;19224;52.462;16.898;2023-02-28T01:11:23;101849.48;;;-0.33;100.00
32873;BME280;19224;52.462;16.898;2023-02-28T01:13:54;101843.38;;;-0.29;100.00
32873;BME280;19224;52.462;16.898;2023-02-28T01:16:25;101836.70;;;-0.32;100.00
32873;BME280;19224;52.462;16.898;2023-02-28T01:18:56;101837.28;;;-0.26;100.00
32873;BME280;19224;52.462;16.898;2023-02-28T01:21:27;101836.06;;;-0.22;100.00
32873;BME280;19224;52.462;16.898;2023-02-28T01:23:59;101837.50;;;-0.16;100.00
32873;BME280;19224;52.462;16.898;2023-02-28T01:26:31;101833.14;;;-0.14;100.00
32873;BME280;19224;52.462;16.898;2023-02-28T01:29:03;101831.23;;;-0.21;100.00
32873;BME280;19224;52.462;16.898;2023-02-28T01:31:34;101827.63;;;-0.23;100.00
32873;BME280;19224;52.462;16.898;2023-02-28T01:34:05;101830.27;;;-0.23;100.00
32873;BME280;19224;52.462;16.898;2023-02-28T01:36:35;101830.37;;;-0.20;100.00
32873;BME280;19224;52.462;16.898;2023-02-28T01:39:06;101834.73;;;-0.22;100.00
32873;BME280;19224;52.462;16.898;2023-02-28T01:41:37;101830.72;;;-0.23;100.00
32873;BME280;19224;52.462;16.898;2023-02-28T01:47:16;101829.13;;;-0.34;100.00
32873;BME280;19224;52.462;16.898;2023-02-28T01:49:47;101834.25;;;-0.23;100.00
32873;BME280;19224;52.462;16.898;2023-02-28T01:52:18;101828.42;;;-0.27;100.00
32873;BME280;19224;52.462;16.898;2023-02-28T01:54:55;101825.38;;;-0.25;100.00
32873;BME280;19224;52.462;16.898;2023-02-28T01:57:35;101827.27;;;-0.21;100.00
32873;BME280;19224;52.462;16.898;2023-02-28T02:00:10;101829.92;;;-0.19;100.00
32873;BME280;19224;52.462;16.898;2023-02-28T02:02:46;101831.13;;;-0.25;100.00
32873;BME280;19224;52.462;16.898;2023-02-28T02:05:21;101828.42;;;-0.27;100.00
32873;BME280;19224;52.462;16.898;2023-02-28T02:08:00;101821.75;;;-0.30;100.00
32873;BME280;19224;52.462;16.898;2023-02-28T02:10:36;101818.64;;;-0.31;100.00
32873;BME280;19224;52.462;16.898;2023-02-28T02:13:19;101821.99;;;-0.38;100.00
32873;BME280;19224;52.462;16.898;2023-02-28T02:30:52;101827.06;;;-0.47;100.00
32873;BME280;19224;52.462;16.898;2023-02-28T02:33:47;101827.40;;;-0.52;100.00
32873;BME280;19224;52.462;16.898;2023-02-28T02:39:19;101824.58;;;-0.59;100.00
32873;BME280;19224;52.462;16.898;2023-02-28T02:41:52;101820.95;;;-0.63;100.00
32873;BME280;19224;52.462;16.898;2023-02-28T02:44:53;101827.23;;;-0.58;100.00
32873;BME280;19224;52.462;16.898;2023-02-28T02:47:26;101820.95;;;-0.63;100.00
32873;BME280;19224;52.462;16.898;2023-02-28T02:50:01;101828.03;;;-0.62;100.00
32873;BME280;19224;52.462;16.898;2023-02-28T02:52:38;101820.63;;;-0.58;100.00
32873;BME280;19224;52.462;16.898;2023-02-28T02:55:12;101821.19;;;-0.54;100.00
32873;BME280;19224;52.462;16.898;2023-02-28T02:57:54;101819.34;;;-0.56;100.00
32873;BME280;19224;52.462;16.898;2023-02-28T03:00:30;101816.75;;;-0.55;100.00
32873;BME280;19224;52.462;16.898;2023-02-28T03:02:57;101815.63;;;-0.46;100.00
32873;BME280;19224;52.462;16.898;2023-02-28T03:05:35;101814.85;;;-0.42;100.00
32873;BME280;19224;52.462;16.898;2023-02-28T03:08:06;101817.05;;;-0.41;100.00
32873;BME280;19224;52.462;16.898;2023-02-28T03:10:46;101815.25;;;-0.44;100.00
32873;BME280;19224;52.462;16.898;2023-02-28T03:22:40;101817.52;;;-0.59;100.00
32873;BME280;19224;52.462;16.898;2023-02-28T03:28:22;101821.19;;;-0.71;100.00
32873;BME280;19224;52.462;16.898;2023-02-28T03:31:30;101817.22;;;-0.71;100.00
32873;BME280;19224;52.462;16.898;2023-02-28T03:34:24;101819.81;;;-0.72;100.00
32873;BME280;19224;52.462;16.898;2023-02-28T03:37:06;101818.70;;;-0.82;100.00
32873;BME280;19224;52.462;16.898;2023-02-28T03:39:43;101819.45;;;-0.87;100.00
32873;BME280;19224;52.462;16.898;2023-02-28T03:42:26;101815.41;;;-0.90;100.00
32873;BME280;19224;52.462;16.898;2023-02-28T03:45:08;101824.61;;;-0.92;100.00
32873;BME280;19224;52.462;16.898;2023-02-28T03:50:41;101821.58;;;-0.90;100.00
32873;BME280;19224;52.462;16.898;2023-02-28T03:53:51;101821.58;;;-0.90;100.00
32873;BME280;19224;52.462;16.898;2023-02-28T03:59:16;101825.64;;;-0.87;100.00
32873;BME280;19224;52.462;16.898;2023-02-28T04:01:48;101830.54;;;-0.85;100.00
32873;BME280;19224;52.462;16.898;2023-02-28T04:04:19;101834.52;;;-0.83;100.00
32873;BME280;19224;52.462;16.898;2023-02-28T04:06:53;101838.94;;;-0.84;100.00
32873;BME280;19224;52.462;16.898;2023-02-28T04:09:25;101834.04;;;-0.86;100.00
32873;BME280;19224;52.462;16.898;2023-02-28T04:11:56;101836.61;;;-0.89;100.00
32873;BME280;19224;52.462;16.898;2023-02-28T04:14:26;101837.89;;;-0.90;100.00
32873;BME280;19224;52.462;16.898;2023-02-28T04:16:57;101840.46;;;-0.93;100.00
32873;BME280;19224;52.462;16.898;2023-02-28T04:19:28;101837.18;;;-1.00;100.00
32873;BME280;19224;52.462;16.898;2023-02-28T04:21:58;101851.13;;;-1.06;100.00
32873;BME280;19224;52.462;16.898;2023-02-28T04:24:29;101847.90;;;-1.11;100.00
32873;BME280;19224;52.462;16.898;2023-02-28T04:27:00;101846.52;;;-1.13;100.00
32873;BME280;19224;52.462;16.898;2023-02-28T04:29:32;101850.48;;;-1.13;100.00
32873;BME280;19224;52.462;16.898;2023-02-28T04:32:04;101846.50;;;-1.14;100.00
32873;BME280;19224;52.462;16.898;2023-02-28T04:34:34;101852.33;;;-1.10;100.00
32873;BME280;19224;52.462;16.898;2023-02-28T04:37:05;101848.70;;;-1.14;100.00
32873;BME280;19224;52.462;16.898;2023-02-28T04:39:38;101850.47;;;-1.14;100.00
32873;BME280;19224;52.462;16.898;2023-02-28T04:42:09;101850.75;;;-1.19;100.00
32873;BME280;19224;52.462;16.898;2023-02-28T04:44:40;101860.58;;;-1.15;100.00
32873;BME280;19224;52.462;16.898;2023-02-28T04:47:10;101867.52;;;-1.19;100.00
32873;BME280;19224;52.462;16.898;2023-02-28T04:49:41;101862.19;;;-1.20;100.00
32873;BME280;19224;52.462;16.898;2023-02-28T04:52:12;101869.59;;;-1.23;100.00
32873;BME280;19224;52.462;16.898;2023-02-28T04:54:43;101865.09;;;-1.27;100.00
32873;BME280;19224;52.462;16.898;2023-02-28T04:57:14;101866.88;;;-1.26;100.00
32873;BME280;19224;52.462;16.898;2023-02-28T04:59:45;101861.52;;;-1.29;100.00
32873;BME280;19224;52.462;16.898;2023-02-28T05:02:15;101862.38;;;-1.30;100.00
32873;BME280;19224;52.462;16.898;2023-02-28T05:04:46;101863.11;;;-1.34;100.00
32873;BME280;19224;52.462;16.898;2023-02-28T05:07:16;101864.49;;;-1.32;100.00
32873;BME280;19224;52.462;16.898;2023-02-28T05:09:47;101865.87;;;-1.31;100.00
32873;BME280;19224;52.462;16.898;2023-02-28T05:12:18;101871.90;;;-1.35;100.00
32873;BME280;19224;52.462;16.898;2023-02-28T05:14:48;101867.47;;;-1.36;100.00
32873;BME280;19224;52.462;16.898;2023-02-28T05:17:19;101872.36;;;-1.34;100.00
32873;BME280;19224;52.462;16.898;2023-02-28T05:19:49;101870.42;;;-1.41;100.00
32873;BME280;19224;52.462;16.898;2023-02-28T05:22:22;101873.59;;;-1.38;100.00
32873;BME280;19224;52.462;16.898;2023-02-28T05:24:53;101876.17;;;-1.40;100.00
32873;BME280;19224;52.462;16.898;2023-02-28T05:27:24;101878.02;;;-1.37;100.00
32873;BME280;19224;52.462;16.898;2023-02-28T05:29:55;101878.50;;;-1.35;100.00
32873;BME280;19224;52.462;16.898;2023-02-28T05:32:26;101884.75;;;-1.33;100.00
32873;BME280;19224;52.462;16.898;2023-02-28T05:34:56;101884.43;;;-1.43;100.00
32873;BME280;19224;52.462;16.898;2023-02-28T05:37:27;101889.25;;;-1.44;100.00
32873;BME280;19224;52.462;16.898;2023-02-28T05:39:58;101882.23;;;-1.44;100.00
32873;BME280;19224;52.462;16.898;2023-02-28T05:42:29;101894.47;;;-1.46;100.00
32873;BME280;19224;52.462;16.898;2023-02-28T05:44:59;101895.06;;;-1.56;100.00
32873;BME280;19224;52.462;16.898;2023-02-28T05:47:30;101892.64;;;-1.64;100.00
32873;BME280;19224;52.462;16.898;2023-02-28T05:50:01;101893.58;;;-1.62;100.00
32873;BME280;19224;52.462;16.898;2023-02-28T05:52:32;101894.98;;;-1.59;100.00
32873;BME280;19224;52.462;16.898;2023-02-28T05:55:04;101894.98;;;-1.59;100.00
32873;BME280;19224;52.462;16.898;2023-02-28T05:57:35;101902.05;;;-1.58;100.00
32873;BME280;19224;52.462;16.898;2023-02-28T06:00:08;101893.11;;;-1.63;100.00
32873;BME280;19224;52.462;16.898;2023-02-28T06:02:40;101899.25;;;-1.64;100.00
32873;BME280;19224;52.462;16.898;2023-02-28T06:05:18;101893.19;;;-1.60;100.00
32873;BME280;19224;52.462;16.898;2023-02-28T06:07:48;101900.84;;;-1.55;100.00
32873;BME280;19224;52.462;16.898;2023-02-28T06:10:20;101901.20;;;-1.57;100.00
32873;BME280;19224;52.462;16.898;2023-02-28T06:12:51;101908.27;;;-1.56;100.00
32873;BME280;19224;52.462;16.898;2023-02-28T06:15:22;101902.16;;;-1.55;100.00
32873;BME280;19224;52.462;16.898;2023-02-28T06:17:52;101907.91;;;-1.54;100.00
32873;BME280;19224;52.462;16.898;2023-02-28T06:20:25;101910.11;;;-1.53;100.00
32873;BME280;19224;52.462;16.898;2023-02-28T06:22:58;101911.56;;;-1.49;100.00
32873;BME280;19224;52.462;16.898;2023-02-28T06:25:29;101916.38;;;-1.50;100.00
32873;BME280;19224;52.462;16.898;2023-02-28T06:27:59;101915.53;;;-1.49;100.00
32873;BME280;19224;52.462;16.898;2023-02-28T06:30:30;101915.67;;;-1.44;100.00
32873;BME280;19224;52.462;16.898;2023-02-28T06:33:04;101916.66;;;-1.41;100.00
32873;BME280;19224;52.462;16.898;2023-02-28T06:35:35;101913.94;;;-1.44;100.00
32873;BME280;19224;52.462;16.898;2023-02-28T06:38:06;101919.30;;;-1.41;100.00
32873;BME280;19224;52.462;16.898;2023-02-28T06:40:37;101923.06;;;-1.33;100.00
32873;BME280;19224;52.462;16.898;2023-02-28T06:43:08;101921.10;;;-1.24;100.00
32873;BME280;19224;52.462;16.898;2023-02-28T06:45:46;101921.30;;;-1.17;100.00
32873;BME280;19224;52.462;16.898;2023-02-28T06:48:16;101918.41;;;-1.10;100.00
32873;BME280;19224;52.462;16.898;2023-02-28T06:50:48;101919.47;;;-1.04;100.00
32873;BME280;19224;52.462;16.898;2023-02-28T06:53:19;101920.04;;;-1.00;100.00
32873;BME280;19224;52.462;16.898;2023-02-28T06:55:49;101922.76;;;-0.97;100.00
32873;BME280;19224;52.462;16.898;2023-02-28T06:58:20;101924.23;;;-0.91;100.00
32873;BME280;19224;52.462;16.898;2023-02-28T07:00:53;101925.27;;;-0.86;100.00
32873;BME280;19224;52.462;16.898;2023-02-28T07:03:25;101921.77;;;-0.85;100.00
32873;BME280;19224;52.462;16.898;2023-02-28T07:06:01;101920.12;;;-0.80;100.00
32873;BME280;19224;52.462;16.898;2023-02-28T07:08:34;101925.59;;;-0.74;100.00
32873;BME280;19224;52.462;16.898;2023-02-28T07:11:05;101919.52;;;-0.70;100.00
32873;BME280;19224;52.462;16.898;2023-02-28T07:13:37;101917.97;;;-0.62;100.00
32873;BME280;19224;52.462;16.898;2023-02-28T07:16:10;101922.47;;;-0.58;100.00
32873;BME280;19224;52.462;16.898;2023-02-28T07:18:41;101923.90;;;-0.55;100.00
32873;BME280;19224;52.462;16.898;2023-02-28T07:21:13;101925.53;;;-0.43;100.00
32873;BME280;19224;52.462;16.898;2023-02-28T07:23:43;101922.95;;;-0.40;100.00
32873;BME280;19224;52.462;16.898;2023-02-28T07:26:17;101920.93;;;-0.33;100.00
32873;BME280;19224;52.462;16.898;2023-02-28T07:28:49;101919.34;;;-0.25;100.00
32873;BME280;19224;52.462;16.898;2023-02-28T07:31:20;101926.08;;;-0.20;100.00
32873;BME280;19224;52.462;16.898;2023-02-28T07:33:50;101924.23;;;-0.24;100.00
32873;BME280;19224;52.462;16.898;2023-02-28T07:36:22;101928.55;;;-0.09;100.00
32873;BME280;19224;52.462;16.898;2023-02-28T07:38:53;101925.72;;;0.00;100.00
32873;BME280;19224;52.462;16.898;2023-02-28T07:41:24;101937.87;;;0.10;100.00
32873;BME280;19224;52.462;16.898;2023-02-28T07:43:56;101936.71;;;0.18;100.00
32873;BME280;19224;52.462;16.898;2023-02-28T07:46:28;101942.28;;;0.30;100.00
32873;BME280;19224;52.462;16.898;2023-02-28T07:49:01;101937.60;;;0.37;100.00
32873;BME280;19224;52.462;16.898;2023-02-28T07:51:33;101937.70;;;0.41;100.00
32873;BME280;19224;52.462;16.898;2023-02-28T07:54:05;101937.87;;;0.49;100.00
32873;BME280;19224;52.462;16.898;2023-02-28T07:56:35;101937.20;;;0.59;100.00
32873;BME280;19224;52.462;16.898;2023-02-28T07:59:06;101937.87;;;0.69;100.00
32873;BME280;19224;52.462;16.898;2023-02-28T08:01:36;101937.25;;;0.82;100.00
32873;BME280;19224;52.462;16.898;2023-02-28T08:04:07;101944.49;;;0.90;100.00
32873;BME280;19224;52.462;16.898;2023-02-28T08:06:38;101946.97;;;1.03;100.00
32873;BME280;19224;52.462;16.898;2023-02-28T08:09:08;101949.12;;;1.00;100.00
32873;BME280;19224;52.462;16.898;2023-02-28T08:11:44;101949.23;;;0.85;100.00
32873;BME280;19224;52.462;16.898;2023-02-28T08:14:16;101944.94;;;0.90;100.00
32873;BME280;19224;52.462;16.898;2023-02-28T08:16:47;101945.41;;;0.92;100.00
32873;BME280;19224;52.462;16.898;2023-02-28T08:19:18;101936.31;;;1.01;100.00
32873;BME280;19224;52.462;16.898;2023-02-28T08:21:48;101934.58;;;1.02;100.00
32873;BME280;19224;52.462;16.898;2023-02-28T08:24:19;101934.58;;;1.02;100.00
32873;BME280;19224;52.462;16.898;2023-02-28T08:26:49;101940.02;;;1.09;100.00
32873;BME280;19224;52.462;16.898;2023-02-28T08:29:20;101942.73;;;1.12;100.00
32873;BME280;19224;52.462;16.898;2023-02-28T08:31:50;101943.27;;;1.18;100.00
32873;BME280;19224;52.462;16.898;2023-02-28T08:34:24;101940.67;;;1.21;100.00
32873;BME280;19224;52.462;16.898;2023-02-28T08:36:54;101944.19;;;1.20;100.00
32873;BME280;19224;52.462;16.898;2023-02-28T08:39:27;101939.02;;;1.26;100.00
32873;BME280;19224;52.462;16.898;2023-02-28T08:41:58;101932.19;;;1.40;100.00
32873;BME280;19224;52.462;16.898;2023-02-28T08:44:28;101928.87;;;1.51;100.00
32873;BME280;19224;52.462;16.898;2023-02-28T08:46:59;101930.33;;;1.59;100.00
32873;BME280;19224;52.462;16.898;2023-02-28T08:49:29;101931.83;;;1.68;100.00
32873;BME280;19224;52.462;16.898;2023-02-28T08:52:00;101934.11;;;1.73;100.00
32873;BME280;19224;52.462;16.898;2023-02-28T08:54:32;101931.95;;;1.77;100.00
32873;BME280;19224;52.462;16.898;2023-02-28T08:57:04;101939.73;;;1.92;100.00
32873;BME280;19224;52.462;16.898;2023-02-28T08:59:34;101936.81;;;2.03;100.00
32873;BME280;19224;52.462;16.898;2023-02-28T09:02:05;101935.67;;;2.14;100.00
32873;BME280;19224;52.462;16.898;2023-02-28T09:04:35;101935.81;;;2.23;100.00
32873;BME280;19224;52.462;16.898;2023-02-28T09:07:06;101928.37;;;2.29;100.00
32873;BME280;19224;52.462;16.898;2023-02-28T09:09:37;101929.83;;;2.38;100.00
32873;BME280;19224;52.462;16.898;2023-02-28T09:12:10;101935.28;;;2.47;100.00
32873;BME280;19224;52.462;16.898;2023-02-28T09:14:41;101921.18;;;2.53;100.00
32873;BME280;19224;52.462;16.898;2023-02-28T09:17:11;101926.59;;;2.60;100.00
32873;BME280;19224;52.462;16.898;2023-02-28T09:19:42;101926.17;;;2.62;100.00
32873;BME280;19224;52.462;16.898;2023-02-28T09:22:13;101926.20;;;2.65;99.29
32873;BME280;19224;52.462;16.898;2023-02-28T09:24:46;101932.23;;;2.52;99.06
32873;BME280;19224;52.462;16.898;2023-02-28T09:27:21;101925.72;;;2.61;99.01
32873;BME280;19224;52.462;16.898;2023-02-28T09:29:56;101929.73;;;2.64;99.43
32873;BME280;19224;52.462;16.898;2023-02-28T09:32:26;101930.55;;;2.57;98.54
32873;BME280;19224;52.462;16.898;2023-02-28T09:34:56;101927.44;;;2.58;98.62
32873;BME280;19224;52.462;16.898;2023-02-28T09:37:27;101930.91;;;2.52;98.93
32873;BME280;19224;52.462;16.898;2023-02-28T09:39:58;101933.92;;;2.44;99.22
32873;BME280;19224;52.462;16.898;2023-02-28T09:42:32;101938.33;;;2.44;98.58
32873;BME280;19224;52.462;16.898;2023-02-28T09:45:19;101935.74;;;2.48;97.91
32873;BME280;19224;52.462;16.898;2023-02-28T09:47:47;101940.31;;;2.58;97.55
32873;BME280;19224;52.462;16.898;2023-02-28T09:50:33;101941.22;;;2.60;97.23
32873;BME280;19224;52.462;16.898;2023-02-28T09:53:43;101948.36;;;2.64;97.09
32873;BME280;19224;52.462;16.898;2023-02-28T09:55:50;101946.19;;;2.67;96.86
32873;BME280;19224;52.462;16.898;2023-02-28T09:58:55;101947.58;;;2.71;96.13
32873;BME280;19224;52.462;16.898;2023-02-28T10:04:46;101956.63;;;2.84;95.61
32873;BME280;19224;52.462;16.898;2023-02-28T10:09:56;101951.81;;;2.91;93.04
32873;BME280;19224;52.462;16.898;2023-02-28T10:12:29;101951.90;;;2.98;91.47
32873;BME280;19224;52.462;16.898;2023-02-28T10:15:00;101951.14;;;3.07;91.57
32873;BME280;19224;52.462;16.898;2023-02-28T10:17:38;101950.57;;;2.98;91.20
32873;BME280;19224;52.462;16.898;2023-02-28T10:20:13;101945.81;;;3.08;90.75
32873;BME280;19224;52.462;16.898;2023-02-28T10:22:57;101948.22;;;3.22;91.15
32873;BME280;19224;52.462;16.898;2023-02-28T10:25:28;101947.42;;;3.31;91.17
32873;BME280;19224;52.462;16.898;2023-02-28T10:28:09;101939.86;;;3.29;89.72
32873;BME280;19224;52.462;16.898;2023-02-28T10:30:47;101942.89;;;3.24;89.61
32873;BME280;19224;52.462;16.898;2023-02-28T10:33:33;101940.26;;;3.25;89.32
32873;BME280;19224;52.462;16.898;2023-02-28T10:36:08;101939.41;;;3.28;89.77
32873;BME280;19224;52.462;16.898;2023-02-28T10:38:40;101941.08;;;3.21;89.97
32873;BME280;19224;52.462;16.898;2023-02-28T10:44:18;101934.83;;;3.16;89.61
32873;BME280;19224;52.462;16.898;2023-02-28T10:46:47;101935.20;;;3.10;89.70
32873;BME280;19224;52.462;16.898;2023-02-28T10:49:22;101929.05;;;3.15;89.93
32873;BME280;19224;52.462;16.898;2023-02-28T10:52:02;101921.99;;;3.20;89.35
32873;BME280;19224;52.462;16.898;2023-02-28T10:54:36;101922.85;;;3.16;89.46
32873;BME280;19224;52.462;16.898;2023-02-28T10:57:20;101920.78;;;3.32;89.67
32873;BME280;19224;52.462;16.898;2023-02-28T11:00:13;101920.91;;;3.43;88.31
32873;BME280;19224;52.462;16.898;2023-02-28T11:02:40;101916.52;;;3.46;87.10
32873;BME280;19224;52.462;16.898;2023-02-28T11:05:33;101908.46;;;3.39;86.55
32873;BME280;19224;52.462;16.898;2023-02-28T11:08:11;101904.57;;;3.52;87.57
32873;BME280;19224;52.462;16.898;2023-02-28T11:10:58;101912.67;;;3.64;86.74
32873;BME280;19224;52.462;16.898;2023-02-28T11:13:24;101907.89;;;3.73;85.39
32873;BME280;19224;52.462;16.898;2023-02-28T11:16:00;101899.92;;;3.79;85.61
32873;BME280;19224;52.462;16.898;2023-02-28T11:18:53;101903.11;;;3.86;84.39
32873;BME280;19224;52.462;16.898;2023-02-28T11:21:35;101899.59;;;3.91;84.12
32873;BME280;19224;52.462;16.898;2023-02-28T11:26:55;101899.24;;;4.05;83.38
32873;BME280;19224;52.462;16.898;2023-02-28T11:29:30;101898.43;;;4.15;82.49
32873;BME280;19224;52.462;16.898;2023-02-28T11:32:18;101901.17;;;4.27;82.49
32873;BME280;19224;52.462;16.898;2023-02-28T11:37:39;101889.73;;;4.46;80.83
32873;BME280;19224;52.462;16.898;2023-02-28T11:40:18;101887.97;;;4.54;80.20
32873;BME280;19224;52.462;16.898;2023-02-28T11:43:36;101892.93;;;4.63;78.54
32873;BME280;19224;52.462;16.898;2023-02-28T11:46:43;101883.01;;;4.37;78.69
32873;BME280;19224;52.462;16.898;2023-02-28T12:09:53;101861.70;;;4.42;76.88
32873;BME280;19224;52.462;16.898;2023-02-28T12:12:34;101863.95;;;4.45;78.47
32873;BME280;19224;52.462;16.898;2023-02-28T12:15:39;101855.55;;;4.59;78.01
32873;BME280;19224;52.462;16.898;2023-02-28T12:18:29;101862.64;;;4.53;77.18
32873;BME280;19224;52.462;16.898;2023-02-28T12:23:52;101851.53;;;4.60;76.75
32873;BME280;19224;52.462;16.898;2023-02-28T12:29:28;101847.20;;;4.86;76.28
32873;BME280;19224;52.462;16.898;2023-02-28T12:37:46;101839.22;;;5.01;73.59
32873;BME280;19224;52.462;16.898;2023-02-28T12:40:23;101834.80;;;5.09;73.71
32873;BME280;19224;52.462;16.898;2023-02-28T12:43:07;101832.14;;;5.14;73.10
32873;BME280;19224;52.462;16.898;2023-02-28T12:48:43;101834.81;;;5.14;73.30
32873;BME280;19224;52.462;16.898;2023-02-28T12:50:52;101826.80;;;5.11;72.00
32873;BME280;19224;52.462;16.898;2023-02-28T12:56:18;101824.58;;;5.27;71.10
32873;BME280;19224;52.462;16.898;2023-02-28T12:58:51;101818.80;;;5.23;69.48
32873;BME280;19224;52.462;16.898;2023-02-28T13:10:22;101819.23;;;5.30;69.47
32873;BME280;19224;52.462;16.898;2023-02-28T13:12:54;101814.80;;;5.33;69.72
32873;BME280;19224;52.462;16.898;2023-02-28T13:15:29;101813.45;;;5.50;70.64
32873;BME280;19224;52.462;16.898;2023-02-28T13:18:01;101807.23;;;5.61;69.56
32873;BME280;19224;52.462;16.898;2023-02-28T13:20:38;101811.23;;;5.69;69.07
32873;BME280;19224;52.462;16.898;2023-02-28T13:23:36;101807.20;;;5.76;68.24
32873;BME280;19224;52.462;16.898;2023-02-28T13:25:52;101805.00;;;5.91;67.75
32873;BME280;19224;52.462;16.898;2023-02-28T13:31:24;101793.73;;;6.35;66.71
32873;BME280;19224;52.462;16.898;2023-02-28T13:34:12;101795.41;;;6.57;64.30
32873;BME280;19224;52.462;16.898;2023-02-28T13:36:36;101794.86;;;6.74;64.04
32873;BME280;19224;52.462;16.898;2023-02-28T13:42:35;101783.48;;;7.08;62.98
32873;BME280;19224;52.462;16.898;2023-02-28T13:48:03;101776.84;;;7.54;59.62
32873;BME280;19224;52.462;16.898;2023-02-28T13:50:36;101775.50;;;7.57;58.69
32873;BME280;19224;52.462;16.898;2023-02-28T13:53:26;101777.71;;;7.59;58.54
32873;BME280;19224;52.462;16.898;2023-02-28T13:59:26;101777.67;;;7.64;59.81
32873;BME280;19224;52.462;16.898;2023-02-28T14:07:53;101761.97;;;8.11;54.83
32873;BME280;19224;52.462;16.898;2023-02-28T14:10:33;101761.45;;;8.16;55.14
32873;BME280;19224;52.462;16.898;2023-02-28T14:13:42;101754.94;;;8.39;55.58
32873;BME280;19224;52.462;16.898;2023-02-28T14:16:23;101760.39;;;8.67;54.16
32873;BME280;19224;52.462;16.898;2023-02-28T14:19:10;101753.95;;;8.77;53.13
32873;BME280;19224;52.462;16.898;2023-02-28T14:21:49;101749.71;;;8.63;53.90
32873;BME280;19224;52.462;16.898;2023-02-28T14:24:48;101745.32;;;8.56;53.92
32873;BME280;19224;52.462;16.898;2023-02-28T14:27:35;101744.30;;;8.64;54.32
32873;BME280;19224;52.462;16.898;2023-02-28T14:31:01;101756.38;;;8.66;53.68
32873;BME280;19224;52.462;16.898;2023-02-28T14:36:20;101743.30;;;9.02;53.57
32873;BME280;19224;52.462;16.898;2023-02-28T14:39:00;101741.95;;;9.02;53.77
32873;BME280;19224;52.462;16.898;2023-02-28T14:41:38;101741.29;;;9.15;53.42
32873;BME280;19224;52.462;16.898;2023-02-28T14:44:23;101730.11;;;9.14;52.82
32873;BME280;19224;52.462;16.898;2023-02-28T14:47:00;101735.98;;;9.10;53.11
32873;BME280;19224;52.462;16.898;2023-02-28T14:49:42;101733.97;;;8.98;52.30
32873;BME280;19224;52.462;16.898;2023-02-28T14:52:27;101737.58;;;8.95;53.32
32873;BME280;19224;52.462;16.898;2023-02-28T14:55:03;101741.84;;;9.08;53.18
32873;BME280;19224;52.462;16.898;2023-02-28T14:57:40;101735.00;;;9.16;53.72
32873;BME280;19224;52.462;16.898;2023-02-28T15:02:49;101736.25;;;9.23;52.03
32873;BME280;19224;52.462;16.898;2023-02-28T15:05:32;101733.36;;;9.34;51.40
32873;BME280;19224;52.462;16.898;2023-02-28T15:08:14;101729.20;;;9.41;51.57
32873;BME280;19224;52.462;16.898;2023-02-28T15:11:02;101724.74;;;9.38;50.67
32873;BME280;19224;52.462;16.898;2023-02-28T15:13:49;101719.72;;;9.44;51.85
32873;BME280;19224;52.462;16.898;2023-02-28T15:16:37;101716.94;;;9.50;51.58
32873;BME280;19224;52.462;16.898;2023-02-28T15:19:13;101711.76;;;9.63;51.66
32873;BME280;19224;52.462;16.898;2023-02-28T15:21:48;101714.64;;;9.76;51.60